createdAt,value
2022-08-26T00:01:54.095Z,101237.25
2022-08-26T00:04:23.420Z,101235.72
2022-08-26T00:06:50.207Z,101232.47
2022-08-26T00:09:16.961Z,101231.06
2022-08-26T00:11:47.261Z,101227.84
2022-08-26T00:14:15.770Z,101232.00
2022-08-26T00:16:47.545Z,101225.34
2022-08-26T00:19:18.198Z,101233.28
2022-08-26T00:21:46.463Z,101229.19
2022-08-26T00:24:19.953Z,101228.59
2022-08-26T00:26:47.249Z,101227.41
2022-08-26T00:29:16.247Z,101225.88
2022-08-26T00:31:45.287Z,101219.47
2022-08-26T00:34:12.850Z,101225.84
2022-08-26T00:36:40.953Z,101228.59
2022-08-26T00:39:08.270Z,101231.25
2022-08-26T00:41:37.792Z,101227.91
2022-08-26T00:44:05.523Z,101226.53
2022-08-26T00:46:37.099Z,101224.56
2022-08-26T00:49:18.042Z,101220.94
2022-08-26T00:51:50.834Z,101224.78
2022-08-26T00:54:19.872Z,101221.91
2022-08-26T00:57:02.507Z,101219.78
2022-08-26T00:59:32.882Z,101206.41
2022-08-26T01:02:00.435Z,101213.94
2022-08-26T01:04:31.912Z,101210.16
2022-08-26T01:06:59.185Z,101204.06
2022-08-26T01:09:27.008Z,101202.25
2022-08-26T01:11:57.513Z,101189.88
2022-08-26T01:14:29.647Z,101206.34
2022-08-26T01:16:56.373Z,101198.09
2022-08-26T01:19:31.715Z,101199.50
2022-08-26T01:22:03.112Z,101203.97
2022-08-26T01:24:30.887Z,101197.13
2022-08-26T01:27:01.607Z,101194.47
2022-08-26T01:29:29.971Z,101199.75
2022-08-26T01:31:57.624Z,101208.81
2022-08-26T01:34:34.992Z,101203.53
2022-08-26T01:37:07.437Z,101197.41
2022-08-26T01:39:36.465Z,101210.72
2022-08-26T01:42:10.306Z,101200.00
2022-08-26T01:44:51.524Z,101199.38
2022-08-26T01:47:24.360Z,101203.00
2022-08-26T01:49:54.801Z,101198.44
2022-08-26T01:52:28.176Z,101205.38
2022-08-26T01:54:56.287Z,101202.84
2022-08-26T01:57:25.329Z,101191.97
2022-08-26T01:59:55.377Z,101186.81
2022-08-26T02:02:23.545Z,101183.34
2022-08-26T02:04:58.276Z,101182.66
2022-08-26T02:07:26.844Z,101171.38
2022-08-26T02:09:53.954Z,101176.25
2022-08-26T02:12:20.725Z,101173.63
2022-08-26T02:14:54.129Z,101170.91
2022-08-26T02:17:26.246Z,101170.00
2022-08-26T02:19:53.441Z,101167.13
2022-08-26T02:22:24.637Z,101170.91
2022-08-26T02:25:01.116Z,101173.84
2022-08-26T02:27:32.792Z,101172.19
2022-08-26T02:30:28.201Z,101168.88
2022-08-26T02:32:57.748Z,101167.31
2022-08-26T02:35:25.892Z,101169.38
2022-08-26T02:37:53.096Z,101166.44
2022-08-26T02:40:24.827Z,101158.00
2022-08-26T02:42:52.908Z,101154.06
2022-08-26T02:45:23.821Z,101160.53
2022-08-26T02:47:52.386Z,101155.53
2022-08-26T02:50:19.522Z,101154.75
2022-08-26T02:52:46.313Z,101150.72
2022-08-26T02:55:13.100Z,101154.09
2022-08-26T02:57:39.703Z,101148.81
2022-08-26T03:00:09.901Z,101145.50
2022-08-26T03:02:40.125Z,101148.69
2022-08-26T03:05:07.501Z,101149.38
2022-08-26T03:07:34.512Z,101142.56
2022-08-26T03:10:01.164Z,101144.75
2022-08-26T03:12:34.304Z,101137.25
2022-08-26T03:15:01.582Z,101147.72
2022-08-26T03:17:28.229Z,101144.09
2022-08-26T03:19:57.260Z,101128.50
2022-08-26T03:22:25.193Z,101136.56
2022-08-26T03:24:52.297Z,101134.81
2022-08-26T03:27:19.101Z,101139.09
2022-08-26T03:30:04.239Z,101137.31
2022-08-26T03:32:31.322Z,101134.69
2022-08-26T03:34:58.525Z,101123.00
2022-08-26T03:37:25.153Z,101131.06
2022-08-26T03:39:52.589Z,101125.59
2022-08-26T03:42:21.538Z,101125.31
2022-08-26T03:44:48.942Z,101128.94
2022-08-26T03:47:15.824Z,101123.81
2022-08-26T03:49:42.470Z,101123.13
2022-08-26T03:52:09.441Z,101122.56
2022-08-26T03:54:36.687Z,101117.53
2022-08-26T03:57:06.297Z,101118.91
2022-08-26T03:59:32.934Z,101122.84
2022-08-26T04:01:59.822Z,101112.94
2022-08-26T04:04:26.442Z,101122.66
2022-08-26T04:07:00.965Z,101120.41
2022-08-26T04:09:28.285Z,101122.53
2022-08-26T04:11:58.666Z,101118.53
2022-08-26T04:14:27.682Z,101114.91
2022-08-26T04:16:55.399Z,101112.25
2022-08-26T04:19:23.603Z,101115.44
2022-08-26T04:21:53.402Z,101110.00
2022-08-26T04:24:24.122Z,101119.59
2022-08-26T04:26:51.088Z,101124.34
2022-08-26T04:29:21.682Z,101118.75
2022-08-26T04:31:48.583Z,101123.75
2022-08-26T04:34:16.028Z,101113.88
2022-08-26T04:36:43.809Z,101114.09
2022-08-26T04:39:12.708Z,101110.63
2022-08-26T04:41:39.999Z,101110.63
2022-08-26T04:44:07.733Z,101114.50
2022-08-26T04:46:35.186Z,101111.44
2022-08-26T04:49:08.494Z,101113.88
2022-08-26T04:51:36.211Z,101120.22
2022-08-26T04:54:06.924Z,101123.84
2022-08-26T04:56:37.482Z,101124.25
2022-08-26T04:59:07.984Z,101115.88
2022-08-26T05:01:46.228Z,101117.22
2022-08-26T05:04:13.650Z,101119.03
2022-08-26T05:06:43.598Z,101116.94
2022-08-26T05:09:10.792Z,101124.56
2022-08-26T05:11:38.401Z,101109.41
2022-08-26T05:14:06.056Z,101114.00
2022-08-26T05:16:32.716Z,101123.44
2022-08-26T05:18:59.502Z,101132.44
2022-08-26T05:21:29.170Z,101120.66
2022-08-26T05:23:57.075Z,101126.75
2022-08-26T05:26:29.554Z,101126.38
2022-08-26T05:28:56.874Z,101122.25
2022-08-26T05:31:28.531Z,101126.09
2022-08-26T05:33:57.469Z,101118.72
2022-08-26T05:36:28.169Z,101124.00
2022-08-26T05:38:57.363Z,101118.53
2022-08-26T05:41:34.588Z,101122.25
2022-08-26T05:44:05.847Z,101125.31
2022-08-26T05:46:33.866Z,101119.34
2022-08-26T05:49:01.213Z,101122.97
2022-08-26T05:51:27.866Z,101124.22
2022-08-26T05:53:57.793Z,101123.66
2022-08-26T05:56:26.117Z,101121.78
2022-08-26T05:58:53.567Z,101112.69
2022-08-26T06:01:23.665Z,101117.66
2022-08-26T06:03:52.366Z,101119.03
2022-08-26T06:06:27.460Z,101122.38
2022-08-26T06:08:59.041Z,101117.56
2022-08-26T06:11:27.848Z,101114.13
2022-08-26T06:14:01.355Z,101119.44
2022-08-26T06:16:31.375Z,101111.50
2022-08-26T06:18:58.003Z,101119.81
2022-08-26T06:21:29.131Z,101117.84
2022-08-26T06:24:17.131Z,101111.06
2022-08-26T06:26:50.355Z,101111.06
2022-08-26T06:29:24.627Z,101101.66
2022-08-26T06:31:52.876Z,101108.56
2022-08-26T06:34:19.805Z,101107.31
2022-08-26T06:36:47.284Z,101101.41
2022-08-26T06:39:16.619Z,101110.41
2022-08-26T06:41:45.018Z,101103.06
2022-08-26T06:44:17.600Z,101102.53
2022-08-26T06:46:45.909Z,101106.09
2022-08-26T06:49:17.243Z,101110.41
2022-08-26T06:51:44.242Z,101110.28
2022-08-26T06:54:11.542Z,101097.31
2022-08-26T06:56:42.675Z,101103.28
2022-08-26T06:59:12.562Z,101101.94
2022-08-26T07:01:45.675Z,101096.34
2022-08-26T07:04:15.726Z,101102.13
2022-08-26T07:06:48.931Z,101104.66
2022-08-26T07:09:17.406Z,101108.09
2022-08-26T07:11:45.008Z,101101.53
2022-08-26T07:14:12.477Z,101097.47
2022-08-26T07:16:41.216Z,101091.19
2022-08-26T07:19:11.448Z,101093.03
2022-08-26T07:21:41.541Z,101088.06
2022-08-26T07:24:10.986Z,101100.28
2022-08-26T07:26:39.281Z,101097.84
2022-08-26T07:29:12.320Z,101102.50
2022-08-26T07:31:39.570Z,101096.72
2022-08-26T07:34:13.942Z,101088.75
2022-08-26T07:36:41.354Z,101087.78
2022-08-26T07:39:08.629Z,101091.81
2022-08-26T07:41:36.511Z,101087.75
2022-08-26T07:44:04.259Z,101085.81
2022-08-26T07:46:31.192Z,101087.34
2022-08-26T07:48:58.384Z,101082.69
2022-08-26T07:51:25.795Z,101084.38
2022-08-26T07:53:55.551Z,101086.53
2022-08-26T07:56:24.030Z,101087.53
2022-08-26T07:58:53.123Z,101091.34
2022-08-26T08:01:21.599Z,101097.81
2022-08-26T08:03:51.573Z,101088.00
2022-08-26T08:06:19.769Z,101090.00
2022-08-26T08:08:48.441Z,101091.19
2022-08-26T08:11:21.607Z,101092.00
2022-08-26T08:13:56.102Z,101087.53
2022-08-26T08:16:32.233Z,101088.69
2022-08-26T08:19:00.567Z,101086.22
2022-08-26T08:21:27.897Z,101081.41
2022-08-26T08:23:57.476Z,101085.38
2022-08-26T08:26:26.213Z,101085.31
2022-08-26T08:28:57.480Z,101085.94
2022-08-26T08:34:16.971Z,101085.06
2022-08-26T08:36:46.238Z,101081.38
2022-08-26T08:39:13.589Z,101080.53
2022-08-26T08:41:58.559Z,101083.38
2022-08-26T08:47:06.088Z,101081.38
2022-08-26T08:49:34.650Z,101077.22
2022-08-26T08:52:10.818Z,101075.03
2022-08-26T08:54:38.187Z,101069.25
2022-08-26T08:57:14.974Z,101074.50
2022-08-26T08:59:51.984Z,101069.25
2022-08-26T09:02:46.617Z,101063.38
2022-08-26T09:05:25.953Z,101066.44
2022-08-26T09:07:59.375Z,101060.84
2022-08-26T09:10:36.993Z,101072.84
2022-08-26T09:13:16.967Z,101052.59
2022-08-26T09:16:04.285Z,101065.53
2022-08-26T09:18:49.779Z,101053.38
2022-08-26T09:21:19.448Z,101058.19
2022-08-26T09:23:49.535Z,101052.78
2022-08-26T09:26:30.757Z,101053.28
2022-08-26T09:29:02.140Z,101050.72
2022-08-26T09:31:37.456Z,101044.53
2022-08-26T09:34:18.306Z,101050.19
2022-08-26T09:36:53.529Z,101043.72
2022-08-26T09:39:23.871Z,101050.28
2022-08-26T09:42:05.842Z,101040.56
2022-08-26T09:44:33.563Z,101036.88
2022-08-26T09:47:07.032Z,101029.28
2022-08-26T09:49:36.399Z,101033.66
2022-08-26T09:52:23.735Z,101034.75
2022-08-26T09:55:03.485Z,101040.22
2022-08-26T09:57:34.290Z,101019.72
2022-08-26T10:00:03.060Z,101020.97
2022-08-26T10:02:41.776Z,101028.69
2022-08-26T10:05:26.330Z,101022.63
2022-08-26T10:07:54.818Z,101020.53
2022-08-26T10:10:39.496Z,101016.16
2022-08-26T10:13:23.759Z,101021.75
2022-08-26T10:15:56.367Z,101019.19
2022-08-26T10:18:34.755Z,101020.03
2022-08-26T10:21:10.949Z,101014.06
2022-08-26T10:23:45.893Z,101011.50
2022-08-26T10:26:33.644Z,101017.09
2022-08-26T10:29:08.894Z,101010.22
2022-08-26T10:31:40.985Z,101011.69
2022-08-26T10:34:12.535Z,101010.47
2022-08-26T10:37:13.678Z,101013.41
2022-08-26T10:39:49.120Z,101016.09
2022-08-26T10:42:26.035Z,101017.75
2022-08-26T10:45:02.486Z,101012.25
2022-08-26T10:47:37.792Z,101013.41
2022-08-26T10:50:05.697Z,101009.81
2022-08-26T10:52:46.297Z,101006.22
2022-08-26T10:55:27.520Z,101015.56
2022-08-26T10:58:28.039Z,101016.47
2022-08-26T11:01:25.935Z,101003.56
2022-08-26T11:04:10.234Z,101001.72
2022-08-26T11:06:37.856Z,100998.94
2022-08-26T11:09:08.562Z,101000.81
2022-08-26T11:11:43.595Z,101001.47
2022-08-26T11:14:16.290Z,101004.06
2022-08-26T11:16:57.333Z,100998.91
2022-08-26T11:19:59.044Z,100994.72
2022-08-26T11:22:28.599Z,100989.47
2022-08-26T11:24:55.357Z,100987.84
2022-08-26T11:27:28.918Z,100976.50
2022-08-26T11:30:05.289Z,100972.06
2022-08-26T11:32:35.074Z,100978.19
2022-08-26T11:35:06.291Z,100976.97
2022-08-26T11:37:45.646Z,100972.66
2022-08-26T11:46:09.211Z,100967.50
2022-08-26T11:48:39.879Z,100955.38
2022-08-26T11:51:32.902Z,100958.31
2022-08-26T11:54:34.530Z,100958.63
2022-08-26T11:57:11.818Z,100959.50
2022-08-26T11:59:41.321Z,100939.38
2022-08-26T12:02:17.979Z,100943.72
2022-08-26T12:04:48.895Z,100941.25
2022-08-26T12:07:23.746Z,100936.69
2022-08-26T12:10:00.590Z,100935.91
2022-08-26T12:12:35.214Z,100930.38
2022-08-26T12:15:12.638Z,100938.41
2022-08-26T12:17:40.704Z,100921.94
2022-08-26T12:20:30.296Z,100929.81
2022-08-26T12:23:00.239Z,100907.38
2022-08-26T12:25:36.051Z,100910.47
2022-08-26T12:28:07.154Z,100899.16
2022-08-26T12:30:34.138Z,100897.28
2022-08-26T12:33:23.040Z,100892.75
2022-08-26T12:35:56.643Z,100884.28
2022-08-26T12:38:26.212Z,100884.88
2022-08-26T12:40:53.763Z,100879.56
2022-08-26T12:43:41.945Z,100873.13
2022-08-26T12:46:12.973Z,100869.03
2022-08-26T12:48:44.040Z,100867.19
2022-08-26T12:51:29.301Z,100871.03
2022-08-26T12:54:00.108Z,100861.69
2022-08-26T12:56:54.515Z,100856.94
2022-08-26T12:59:27.138Z,100853.66
2022-08-26T13:01:54.467Z,100853.22
2022-08-26T13:04:43.050Z,100856.03
2022-08-26T13:07:36.634Z,100861.88
2022-08-26T13:10:03.582Z,100844.78
2022-08-26T13:12:33.116Z,100844.69
2022-08-26T13:15:01.605Z,100842.09
2022-08-26T13:17:30.212Z,100846.22
2022-08-26T13:20:03.328Z,100833.94
2022-08-26T13:22:32.205Z,100835.53
2022-08-26T13:25:01.851Z,100835.47
2022-08-26T13:27:29.187Z,100831.25
2022-08-26T13:29:57.824Z,100828.69
2022-08-26T13:32:27.499Z,100827.94
2022-08-26T13:34:56.472Z,100821.44
2022-08-26T13:37:24.396Z,100817.19
2022-08-26T13:40:01.889Z,100813.72
2022-08-26T13:42:29.429Z,100807.50
2022-08-26T13:44:58.254Z,100812.59
2022-08-26T13:47:26.286Z,100802.56
2022-08-26T13:49:55.403Z,100793.31
2022-08-26T13:52:30.129Z,100792.47
2022-08-26T13:55:01.678Z,100780.81
2022-08-26T13:57:30.509Z,100787.19
2022-08-26T14:00:00.805Z,100783.78
2022-08-26T14:02:29.044Z,100781.31
2022-08-26T14:04:57.938Z,100783.97
2022-08-26T14:07:25.094Z,100781.53
2022-08-26T14:09:51.970Z,100780.41
2022-08-26T14:12:18.941Z,100777.31
2022-08-26T14:14:47.686Z,100772.28
2022-08-26T14:17:21.676Z,100784.38
2022-08-26T14:19:50.081Z,100771.00
2022-08-26T14:28:22.643Z,100774.75
2022-08-26T14:30:59.333Z,100775.69
2022-08-26T14:33:32.452Z,100773.00
2022-08-26T14:36:19.548Z,100757.97
2022-08-26T14:38:47.756Z,100770.53
2022-08-26T14:41:19.720Z,100772.03
2022-08-26T14:44:05.642Z,100756.91
2022-08-26T14:46:43.558Z,100768.34
2022-08-26T14:49:10.902Z,100761.84
2022-08-26T14:51:38.583Z,100776.44
2022-08-26T14:54:14.437Z,100771.50
2022-08-26T14:56:58.726Z,100766.22
2022-08-26T14:59:29.988Z,100773.03
2022-08-26T15:01:59.026Z,100765.81
2022-08-26T15:04:26.773Z,100767.00
2022-08-26T15:06:55.574Z,100772.34
2022-08-26T15:09:23.413Z,100766.78
2022-08-26T15:11:50.783Z,100762.78
2022-08-26T15:14:19.629Z,100763.59
2022-08-26T15:16:52.593Z,100769.38
2022-08-26T15:19:20.898Z,100773.72
2022-08-26T15:21:48.072Z,100780.03
2022-08-26T15:24:18.820Z,100775.78
2022-08-26T15:26:46.822Z,100775.44
2022-08-26T15:29:14.577Z,100773.75
2022-08-26T15:31:43.765Z,100782.03
2022-08-26T15:34:16.031Z,100785.09
2022-08-26T15:36:46.803Z,100774.84
2022-08-26T15:39:15.186Z,100780.69
2022-08-26T15:41:42.155Z,100791.59
2022-08-26T15:44:10.967Z,100784.34
2022-08-26T15:46:38.710Z,100773.69
2022-08-26T15:49:06.127Z,100786.56
2022-08-26T15:51:35.935Z,100792.03
2022-08-26T15:54:13.375Z,100790.06
2022-08-26T15:56:43.692Z,100778.84
2022-08-26T15:59:11.640Z,100781.50
2022-08-26T16:01:39.306Z,100782.31
2022-08-26T16:04:06.761Z,100776.91
2022-08-26T16:06:36.287Z,100774.78
2022-08-26T16:09:03.831Z,100770.38
2022-08-26T16:11:31.274Z,100772.53
2022-08-26T16:13:58.345Z,100767.09
2022-08-26T16:16:25.210Z,100763.06
2022-08-26T16:18:52.367Z,100763.06
2022-08-26T16:21:22.487Z,100764.63
2022-08-26T16:23:49.370Z,100767.91
2022-08-26T16:26:19.754Z,100781.38
2022-08-26T16:28:47.466Z,100773.72
2022-08-26T16:31:16.660Z,100768.94
2022-08-26T16:33:43.597Z,100763.59
2022-08-26T16:36:13.883Z,100767.00
2022-08-26T16:38:41.364Z,100762.59
2022-08-26T16:41:08.922Z,100767.00
2022-08-26T16:43:35.899Z,100757.94
2022-08-26T16:46:07.553Z,100755.53
2022-08-26T16:48:35.314Z,100744.66
2022-08-26T16:51:02.342Z,100753.78
2022-08-26T16:53:29.158Z,100754.91
2022-08-26T16:55:55.870Z,100755.34
2022-08-26T16:58:25.530Z,100756.00
2022-08-26T17:00:52.502Z,100758.38
2022-08-26T17:03:22.461Z,100749.38
2022-08-26T17:05:49.232Z,100758.47
2022-08-26T17:08:28.344Z,100761.41
2022-08-26T17:10:56.572Z,100765.81
2022-08-26T17:13:35.033Z,100764.72
2022-08-26T17:16:05.138Z,100768.41
2022-08-26T17:18:47.700Z,100767.53
2022-08-26T17:21:14.926Z,100775.88
2022-08-26T17:23:43.196Z,100775.88
2022-08-26T17:26:12.073Z,100777.44
2022-08-26T17:28:41.782Z,100769.00
2022-08-26T17:31:13.278Z,100772.72
2022-08-26T17:33:42.358Z,100769.97
2022-08-26T17:36:12.597Z,100774.28
2022-08-26T17:38:39.986Z,100774.22
2022-08-26T17:41:11.196Z,100761.41
2022-08-26T17:43:39.419Z,100763.66
2022-08-26T17:46:08.414Z,100762.91
2022-08-26T17:48:40.046Z,100765.97
2022-08-26T17:51:15.425Z,100761.56
2022-08-26T17:53:46.644Z,100755.00
2022-08-26T17:56:15.665Z,100747.03
2022-08-26T17:58:48.069Z,100746.97
2022-08-26T18:01:20.511Z,100750.78
2022-08-26T18:03:47.587Z,100760.06
2022-08-26T18:06:15.864Z,100750.03
2022-08-26T18:08:45.364Z,100764.28
2022-08-26T18:11:15.929Z,100769.84
2022-08-26T18:13:47.259Z,100767.09
2022-08-26T18:16:16.250Z,100767.13
2022-08-26T18:22:49.178Z,100779.59
2022-08-26T18:25:17.436Z,100790.69
2022-08-26T18:27:44.120Z,100789.69
2022-08-26T18:42:23.557Z,100795.09
2022-08-26T18:44:51.257Z,100799.75
2022-08-26T18:47:18.046Z,100800.22
2022-08-26T18:49:46.161Z,100808.50
2022-08-26T18:52:13.001Z,100802.69
2022-08-26T18:54:39.726Z,100808.50
2022-08-26T18:57:06.585Z,100810.00
2022-08-26T18:59:33.807Z,100811.50
2022-08-26T19:02:00.792Z,100805.06
2022-08-26T19:04:27.572Z,100818.34
2022-08-26T19:06:54.235Z,100814.00
2022-08-26T19:09:21.600Z,100806.56
2022-08-26T19:11:50.006Z,100812.69
2022-08-26T19:14:17.048Z,100809.72
2022-08-26T19:16:46.198Z,100817.03
2022-08-26T19:19:13.449Z,100821.84
2022-08-26T19:21:40.765Z,100814.41
2022-08-26T19:24:15.323Z,100817.72
2022-08-26T19:26:46.715Z,100805.44
2022-08-26T19:29:15.382Z,100811.75
2022-08-26T19:31:43.938Z,100805.78
2022-08-26T19:34:13.537Z,100806.44
2022-08-26T19:36:43.068Z,100802.47
2022-08-26T19:39:14.305Z,100799.63
2022-08-26T19:41:41.461Z,100797.09
2022-08-26T19:44:12.956Z,100793.28
2022-08-26T19:46:39.908Z,100797.25
2022-08-26T19:49:06.729Z,100790.03
2022-08-26T19:51:35.207Z,100796.19
2022-08-26T19:54:02.382Z,100785.38
2022-08-26T19:56:31.900Z,100793.19
2022-08-26T19:58:58.691Z,100782.81
2022-08-26T20:01:26.204Z,100774.81
2022-08-26T20:03:53.117Z,100799.03
2022-08-26T20:06:20.846Z,100792.72
2022-08-26T20:08:47.767Z,100798.38
2022-08-26T20:11:18.710Z,100789.34
2022-08-26T20:13:46.858Z,100789.25
2022-08-26T20:16:14.230Z,100779.50
2022-08-26T20:19:00.602Z,100775.13
2022-08-26T20:21:29.487Z,100784.81
2022-08-26T20:24:05.945Z,100777.69
2022-08-26T20:26:35.237Z,100784.66
2022-08-26T20:29:01.959Z,100778.50
2022-08-26T20:31:29.676Z,100783.22
2022-08-26T20:33:56.531Z,100774.44
2022-08-26T20:36:26.813Z,100766.00
2022-08-26T20:38:54.750Z,100758.19
2022-08-26T20:41:22.588Z,100761.81
2022-08-26T20:43:49.380Z,100755.69
2022-08-26T20:46:17.968Z,100759.13
2022-08-26T20:48:47.962Z,100767.44
2022-08-26T20:51:16.627Z,100761.84
2022-08-26T20:53:44.479Z,100756.97
2022-08-26T20:56:13.406Z,100763.06
2022-08-26T20:58:40.876Z,100769.38
2022-08-26T21:01:08.956Z,100773.88
2022-08-26T21:03:36.514Z,100764.75
2022-08-26T21:06:03.914Z,100772.59
2022-08-26T21:08:32.023Z,100772.41
2022-08-26T21:11:00.914Z,100774.59
2022-08-26T21:13:35.828Z,100774.28
2022-08-26T21:16:11.463Z,100777.94
2022-08-26T21:18:39.040Z,100782.44
2022-08-26T21:21:09.820Z,100786.88
2022-08-26T21:23:39.618Z,100777.28
2022-08-26T21:26:15.050Z,100783.75
2022-08-26T21:28:44.108Z,100783.75
2022-08-26T21:31:14.128Z,100786.56
2022-08-26T21:33:41.663Z,100780.09
2022-08-26T21:36:10.082Z,100780.94
2022-08-26T21:38:37.868Z,100777.16
2022-08-26T21:41:19.305Z,100783.44
2022-08-26T21:43:47.933Z,100783.75
2022-08-26T21:46:17.426Z,100778.81
2022-08-26T21:48:50.703Z,100781.59
2022-08-26T21:51:20.366Z,100779.09
2022-08-26T21:53:47.535Z,100778.28
2022-08-26T21:56:16.157Z,100783.75
2022-08-26T21:58:42.949Z,100788.72
2022-08-26T22:01:16.119Z,100784.56
2022-08-26T22:03:47.341Z,100776.25
2022-08-26T22:06:23.535Z,100778.47
2022-08-26T22:08:50.925Z,100769.84
2022-08-26T22:11:18.886Z,100767.97
2022-08-26T22:13:47.205Z,100757.56
2022-08-26T22:16:14.421Z,100750.91
2022-08-26T22:18:43.811Z,100751.75
2022-08-26T22:21:16.643Z,100756.72
2022-08-26T22:23:44.282Z,100755.88
2022-08-26T22:26:13.118Z,100757.22
2022-08-26T22:28:42.371Z,100757.72
2022-08-26T22:31:14.370Z,100762.84
2022-08-26T22:33:46.445Z,100761.88
2022-08-26T22:36:20.514Z,100767.69
2022-08-26T22:38:50.497Z,100763.22
2022-08-26T22:41:18.312Z,100762.41
2022-08-26T22:43:46.284Z,100756.44
2022-08-26T22:46:21.808Z,100760.06
2022-08-26T22:48:53.725Z,100745.66
2022-08-26T22:51:22.153Z,100748.16
2022-08-26T22:53:49.181Z,100742.00
2022-08-26T22:56:18.481Z,100751.28
2022-08-26T22:58:45.625Z,100752.94
2022-08-26T23:01:16.937Z,100750.63
2022-08-26T23:03:45.339Z,100742.00
2022-08-26T23:06:12.255Z,100738.50
2022-08-26T23:08:41.854Z,100743.78
2022-08-26T23:11:14.351Z,100739.00
2022-08-26T23:13:41.143Z,100745.47
2022-08-26T23:16:11.084Z,100743.78
2022-08-26T23:18:38.984Z,100738.97
2022-08-26T23:21:06.025Z,100730.31
2022-08-26T23:23:33.356Z,100733.16
2022-08-26T23:26:03.232Z,100726.03
2022-08-26T23:28:35.974Z,100731.50
2022-08-26T23:31:02.808Z,100730.16
2022-08-26T23:33:52.214Z,100726.66
2022-08-26T23:36:22.960Z,100716.91
2022-08-26T23:38:53.786Z,100727.38
2022-08-26T23:41:22.470Z,100715.94
2022-08-26T23:43:49.711Z,100715.63
2022-08-26T23:46:16.667Z,100704.03
2022-08-26T23:48:43.848Z,100712.50
2022-08-26T23:51:33.961Z,100715.94
2022-08-26T23:54:00.686Z,100717.25
2022-08-26T23:56:29.146Z,100713.75
2022-08-26T23:58:56.124Z,100707.44
